CFG7KH EDDH-LGRP
Flight info
| Callsign | CFG7KH |
|---|---|
| Flight time | N/A |
| Altitude | 37000 |
| Route | AMLUH2G AMLUH M852 DENIX DCT ZUCKA DCT ARMUT DCT LULAR DCT DEXIT DCT DER DCT MEDUX UM867 KOGAT DCT ERANA DCT TSL UN130 MES UN139 LURUS UL995 CODIC |
| Aircraft | A320/M-SDE3FGHIRWY/LB1 |
Departure
| Time | 2026-04-25 07:53 |
|---|---|
| Airport | Hamburg Helmut Schmidt Airport (EDDH) |
Arrival
| Time | N/A |
|---|---|
| Airport | Rhodes International Airport "Diagoras" (LGRP) |
| Time | Latitude | Longitude | Altitude | Speed | Heading |
|---|---|---|---|---|---|
| 2026-04-25 07:18 | 53.63292 | 10.00361 | 49 ft | 0 kts | 87° |
| 2026-04-25 07:47 | 53.63292 | 10.00342 | 48 ft | 4 kts | 87° |
| 2026-04-25 07:47 | 53.63290 | 10.00297 | 48 ft | 4 kts | 87° |
| 2026-04-25 07:47 | 53.63289 | 10.00255 | 48 ft | 2 kts | 87° |
| 2026-04-25 07:47 | 53.63289 | 10.00216 | 48 ft | 4 kts | 101° |
| 2026-04-25 07:48 | 53.63299 | 10.00178 | 46 ft | 4 kts | 144° |
| 2026-04-25 07:48 | 53.63311 | 10.00168 | 43 ft | 0 kts | 176° |
| 2026-04-25 07:50 | 53.63299 | 10.00169 | 42 ft | 8 kts | 176° |
| 2026-04-25 07:51 | 53.63195 | 10.00182 | 48 ft | 17 kts | 176° |
| 2026-04-25 07:51 | 53.63083 | 10.00188 | 48 ft | 15 kts | 193° |
| 2026-04-25 07:51 | 53.62991 | 10.00099 | 48 ft | 16 kts | 212° |
| 2026-04-25 07:51 | 53.62919 | 9.99984 | 48 ft | 9 kts | 238° |
| 2026-04-25 07:52 | 53.62883 | 9.99872 | 47 ft | 14 kts | 242° |
| 2026-04-25 07:52 | 53.62883 | 9.99733 | 45 ft | 7 kts | 323° |
| 2026-04-25 07:52 | 53.62890 | 9.99727 | 45 ft | 0 kts | 332° |
| 2026-04-25 07:52 | 53.62894 | 9.99723 | 45 ft | 6 kts | 332° |
| 2026-04-25 07:53 | 53.63157 | 9.99493 | 46 ft | 77 kts | 333° |
| 2026-04-25 07:53 | 53.63806 | 9.98932 | 49 ft | 131 kts | 333° |
| 2026-04-25 07:53 | 53.64722 | 9.98142 | 338 ft | 149 kts | 331° |
| 2026-04-25 07:53 | 53.65642 | 9.97428 | 1048 ft | 145 kts | 329° |
| 2026-04-25 07:54 | 53.66544 | 9.96650 | 1744 ft | 146 kts | 328° |
| 2026-04-25 07:54 | 53.67492 | 9.95815 | 2174 ft | 164 kts | 328° |
| 2026-04-25 07:54 | 53.68566 | 9.94908 | 2469 ft | 189 kts | 336° |
| 2026-04-25 07:54 | 53.69943 | 9.94687 | 3056 ft | 204 kts | 356° |
| 2026-04-25 07:55 | 53.71289 | 9.94722 | 3908 ft | 202 kts | 355° |
| 2026-04-25 07:55 | 53.72671 | 9.95296 | 4656 ft | 217 kts | 28° |
| 2026-04-25 07:55 | 53.73636 | 9.97359 | 5349 ft | 235 kts | 59° |
| 2026-04-25 07:55 | 53.74175 | 10.00027 | 6080 ft | 244 kts | 72° |
| 2026-04-25 07:56 | 53.74146 | 10.02962 | 6761 ft | 258 kts | 99° |
| 2026-04-25 07:56 | 53.73497 | 10.05901 | 7145 ft | 281 kts | 118° |
| 2026-04-25 07:56 | 53.72432 | 10.08843 | 7473 ft | 304 kts | 120° |
| 2026-04-25 07:56 | 53.71350 | 10.11975 | 8108 ft | 313 kts | 118° |
| 2026-04-25 07:57 | 53.70264 | 10.15185 | 8867 ft | 318 kts | 121° |
| 2026-04-25 07:57 | 53.68902 | 10.18146 | 9636 ft | 322 kts | 136° |
| 2026-04-25 07:57 | 53.67154 | 10.20510 | 10347 ft | 324 kts | 151° |
| 2026-04-25 07:57 | 53.65056 | 10.22166 | 10570 ft | 342 kts | 167° |
| 2026-04-25 07:58 | 53.62686 | 10.23231 | 10743 ft | 364 kts | 169° |
| 2026-04-25 07:58 | 53.60161 | 10.24343 | 10978 ft | 383 kts | 169° |
| 2026-04-25 07:58 | 53.57560 | 10.25513 | 11546 ft | 390 kts | 169° |
| 2026-04-25 07:58 | 53.54928 | 10.26716 | 12197 ft | 393 kts | 168° |
| 2026-04-25 07:59 | 53.52280 | 10.27937 | 12920 ft | 395 kts | 168° |
| 2026-04-25 07:59 | 53.49619 | 10.29163 | 13604 ft | 398 kts | 168° |
| 2026-04-25 07:59 | 53.46932 | 10.30394 | 14219 ft | 402 kts | 168° |
| 2026-04-25 07:59 | 53.44223 | 10.31634 | 14800 ft | 405 kts | 168° |
| 2026-04-25 08:00 | 53.41492 | 10.32881 | 15365 ft | 409 kts | 168° |
| 2026-04-25 08:00 | 53.38772 | 10.34112 | 15929 ft | 412 kts | 169° |
| 2026-04-25 08:00 | 53.35987 | 10.35365 | 16474 ft | 416 kts | 169° |
| 2026-04-25 08:00 | 53.33139 | 10.36644 | 17035 ft | 420 kts | 169° |
| 2026-04-25 08:01 | 53.30302 | 10.37916 | 17594 ft | 424 kts | 169° |
| 2026-04-25 08:01 | 53.27445 | 10.39195 | 18153 ft | 427 kts | 168° |
| 2026-04-25 08:01 | 53.24572 | 10.40480 | 18719 ft | 428 kts | 168° |
| 2026-04-25 08:01 | 53.21722 | 10.41753 | 19214 ft | 431 kts | 168° |
| 2026-04-25 08:02 | 53.18818 | 10.43046 | 19704 ft | 433 kts | 168° |
| 2026-04-25 08:02 | 53.15892 | 10.44343 | 20188 ft | 436 kts | 168° |
| 2026-04-25 08:02 | 53.12949 | 10.45639 | 20651 ft | 438 kts | 169° |
| 2026-04-25 08:02 | 53.09976 | 10.46799 | 21112 ft | 440 kts | 171° |
| 2026-04-25 08:03 | 53.06972 | 10.47792 | 21562 ft | 441 kts | 173° |
| 2026-04-25 08:03 | 53.03941 | 10.48682 | 22004 ft | 444 kts | 174° |
| 2026-04-25 08:03 | 53.00890 | 10.49533 | 22426 ft | 446 kts | 174° |
| 2026-04-25 08:03 | 52.97821 | 10.50396 | 22846 ft | 448 kts | 173° |
| 2026-04-25 08:04 | 52.94739 | 10.51298 | 23243 ft | 451 kts | 173° |
| 2026-04-25 08:04 | 52.91646 | 10.52236 | 23635 ft | 453 kts | 173° |
| 2026-04-25 08:04 | 52.88537 | 10.53204 | 23960 ft | 456 kts | 172° |
| 2026-04-25 08:04 | 52.85413 | 10.54186 | 24283 ft | 458 kts | 172° |
| 2026-04-25 08:05 | 52.82277 | 10.55169 | 24589 ft | 460 kts | 172° |
| 2026-04-25 08:05 | 52.79129 | 10.56149 | 24883 ft | 462 kts | 172° |
| 2026-04-25 08:05 | 52.75959 | 10.57132 | 25179 ft | 464 kts | 172° |
| 2026-04-25 08:05 | 52.72779 | 10.58114 | 25474 ft | 466 kts | 172° |
| 2026-04-25 08:06 | 52.69588 | 10.59095 | 25771 ft | 468 kts | 172° |
| 2026-04-25 08:06 | 52.66377 | 10.60075 | 26061 ft | 470 kts | 172° |
| 2026-04-25 08:06 | 52.63160 | 10.61053 | 26338 ft | 471 kts | 172° |
| 2026-04-25 08:06 | 52.59921 | 10.62039 | 26610 ft | 473 kts | 172° |
| 2026-04-25 08:07 | 52.56676 | 10.63027 | 26872 ft | 475 kts | 172° |
| 2026-04-25 08:07 | 52.53420 | 10.64019 | 27125 ft | 477 kts | 172° |
| 2026-04-25 08:07 | 52.50154 | 10.65011 | 27370 ft | 478 kts | 172° |
| 2026-04-25 08:07 | 52.46874 | 10.66005 | 27627 ft | 479 kts | 172° |
| 2026-04-25 08:08 | 52.43590 | 10.67001 | 27864 ft | 481 kts | 172° |
| 2026-04-25 08:08 | 52.40338 | 10.67986 | 28086 ft | 483 kts | 172° |
| 2026-04-25 08:08 | 52.36990 | 10.69002 | 28369 ft | 483 kts | 171° |
| 2026-04-25 08:08 | 52.33692 | 10.70000 | 28686 ft | 482 kts | 171° |
| 2026-04-25 08:09 | 52.30396 | 10.70989 | 28994 ft | 481 kts | 172° |
| 2026-04-25 08:09 | 52.27107 | 10.71973 | 29295 ft | 481 kts | 171° |
| 2026-04-25 08:09 | 52.23819 | 10.72956 | 29652 ft | 479 kts | 171° |
| 2026-04-25 08:09 | 52.20588 | 10.73923 | 29999 ft | 478 kts | 171° |
| 2026-04-25 08:10 | 52.17318 | 10.74901 | 30303 ft | 477 kts | 171° |
| 2026-04-25 08:10 | 52.14056 | 10.75877 | 30563 ft | 477 kts | 171° |
| 2026-04-25 08:10 | 52.10794 | 10.76850 | 30812 ft | 477 kts | 171° |
| 2026-04-25 08:10 | 52.07530 | 10.77822 | 31068 ft | 477 kts | 171° |
| 2026-04-25 08:11 | 52.04268 | 10.78789 | 31321 ft | 476 kts | 171° |
| 2026-04-25 08:11 | 52.01010 | 10.79749 | 31571 ft | 476 kts | 172° |
| 2026-04-25 08:11 | 51.97757 | 10.80711 | 31893 ft | 474 kts | 172° |
| 2026-04-25 08:11 | 51.94527 | 10.81673 | 32197 ft | 472 kts | 174° |
| 2026-04-25 08:12 | 51.91302 | 10.82635 | 32516 ft | 470 kts | 174° |
| 2026-04-25 08:12 | 51.88094 | 10.83583 | 32787 ft | 469 kts | 174° |
| 2026-04-25 08:12 | 51.84874 | 10.84530 | 33041 ft | 469 kts | 174° |
| 2026-04-25 08:12 | 51.81662 | 10.85476 | 33295 ft | 469 kts | 174° |
| 2026-04-25 08:13 | 51.78450 | 10.86419 | 33552 ft | 469 kts | 174° |
| 2026-04-25 08:13 | 51.75244 | 10.87359 | 33825 ft | 467 kts | 175° |
| 2026-04-25 08:13 | 51.72049 | 10.88296 | 34125 ft | 466 kts | 175° |
| 2026-04-25 08:14 | 51.65750 | 10.90923 | 34568 ft | 474 kts | 161° |
| 2026-04-25 08:14 | 51.62751 | 10.93168 | 34775 ft | 476 kts | 159° |
| 2026-04-25 08:14 | 51.59770 | 10.95459 | 34978 ft | 476 kts | 159° |
| 2026-04-25 08:14 | 51.57789 | 10.96975 | 35113 ft | 475 kts | 159° |
| 2026-04-25 08:15 | 51.54805 | 10.99249 | 35316 ft | 475 kts | 159° |
| 2026-04-25 08:15 | 51.51815 | 11.01522 | 35485 ft | 475 kts | 159° |
| 2026-04-25 08:15 | 51.48831 | 11.03787 | 35669 ft | 475 kts | 159° |
| 2026-04-25 08:15 | 51.45846 | 11.06050 | 35869 ft | 474 kts | 159° |
| 2026-04-25 08:16 | 51.42860 | 11.08310 | 36047 ft | 474 kts | 159° |
| 2026-04-25 08:16 | 51.39879 | 11.10562 | 36244 ft | 474 kts | 160° |
| 2026-04-25 08:16 | 51.36898 | 11.12810 | 36401 ft | 474 kts | 160° |
| 2026-04-25 08:16 | 51.33911 | 11.15059 | 36563 ft | 474 kts | 160° |
| 2026-04-25 08:17 | 51.30931 | 11.17303 | 36733 ft | 473 kts | 160° |
| 2026-04-25 08:17 | 51.27950 | 11.19546 | 36898 ft | 473 kts | 160° |
| 2026-04-25 08:17 | 51.24974 | 11.21781 | 37051 ft | 472 kts | 160° |
| 2026-04-25 08:18 | 51.19002 | 11.26263 | 37102 ft | 475 kts | 160° |
| 2026-04-25 08:18 | 51.13045 | 11.30713 | 37103 ft | 476 kts | 160° |
| 2026-04-25 08:19 | 51.07046 | 11.35181 | 37103 ft | 476 kts | 160° |
| 2026-04-25 08:19 | 51.01055 | 11.39634 | 37069 ft | 476 kts | 160° |
| 2026-04-25 08:20 | 50.95056 | 11.44080 | 37107 ft | 476 kts | 160° |
| 2026-04-25 08:20 | 50.89048 | 11.48511 | 37110 ft | 476 kts | 160° |
| 2026-04-25 08:21 | 50.83046 | 11.52922 | 37106 ft | 476 kts | 160° |
| 2026-04-25 08:21 | 50.77044 | 11.57335 | 37107 ft | 476 kts | 160° |
| 2026-04-25 08:22 | 50.71045 | 11.61728 | 37086 ft | 475 kts | 160° |
| 2026-04-25 08:22 | 50.65043 | 11.66107 | 37100 ft | 475 kts | 160° |
| 2026-04-25 08:23 | 50.59051 | 11.70475 | 37102 ft | 474 kts | 160° |
| 2026-04-25 08:23 | 50.53057 | 11.74822 | 37112 ft | 474 kts | 160° |
| 2026-04-25 08:24 | 50.47060 | 11.79159 | 37123 ft | 474 kts | 160° |
| 2026-04-25 08:24 | 50.41059 | 11.83494 | 37120 ft | 474 kts | 160° |
| 2026-04-25 08:25 | 50.35108 | 11.87787 | 37120 ft | 474 kts | 160° |
| 2026-04-25 08:25 | 50.29076 | 11.92117 | 37124 ft | 474 kts | 160° |
| 2026-04-25 08:26 | 50.23079 | 11.96397 | 37108 ft | 473 kts | 160° |
| 2026-04-25 08:26 | 50.17128 | 12.00649 | 37122 ft | 473 kts | 160° |
| 2026-04-25 08:27 | 50.11149 | 12.04924 | 37116 ft | 473 kts | 160° |
| 2026-04-25 08:27 | 50.05188 | 12.09156 | 37111 ft | 472 kts | 160° |
| 2026-04-25 08:28 | 49.99322 | 12.13312 | 37082 ft | 472 kts | 160° |
| 2026-04-25 08:28 | 49.93347 | 12.17519 | 37098 ft | 471 kts | 160° |
| 2026-04-25 08:29 | 49.87384 | 12.21713 | 37106 ft | 470 kts | 160° |
| 2026-04-25 08:29 | 49.81472 | 12.25864 | 37101 ft | 470 kts | 160° |
| 2026-04-25 08:30 | 49.75510 | 12.30049 | 37089 ft | 469 kts | 160° |
| 2026-04-25 08:30 | 49.69913 | 12.35186 | 37096 ft | 477 kts | 145° |
| 2026-04-25 08:31 | 49.64732 | 12.41589 | 37104 ft | 476 kts | 145° |
| 2026-04-25 08:31 | 49.59551 | 12.47952 | 37103 ft | 476 kts | 145° |
| 2026-04-25 08:32 | 49.54023 | 12.54708 | 37110 ft | 476 kts | 145° |
| 2026-04-25 08:32 | 49.45372 | 12.65236 | 37102 ft | 476 kts | 146° |
| 2026-04-25 08:33 | 49.35174 | 12.78109 | 37099 ft | 480 kts | 136° |
| 2026-04-25 08:33 | 49.25972 | 12.92893 | 37102 ft | 479 kts | 137° |
| 2026-04-25 08:34 | 49.16750 | 13.07531 | 37102 ft | 479 kts | 137° |
| 2026-04-25 08:34 | 49.07501 | 13.22152 | 37117 ft | 478 kts | 137° |
| 2026-04-25 08:35 | 48.98234 | 13.36732 | 37118 ft | 478 kts | 137° |
| 2026-04-25 08:35 | 48.88974 | 13.51179 | 37104 ft | 478 kts | 138° |
| 2026-04-25 08:36 | 48.79740 | 13.65530 | 37117 ft | 478 kts | 137° |
| 2026-04-25 08:36 | 48.69855 | 13.78865 | 37106 ft | 475 kts | 145° |
| 2026-04-25 08:37 | 48.59805 | 13.91202 | 37120 ft | 474 kts | 145° |
| 2026-04-25 08:37 | 48.49542 | 14.03758 | 37118 ft | 476 kts | 145° |
| 2026-04-25 08:38 | 48.39376 | 14.16129 | 37112 ft | 476 kts | 145° |
| 2026-04-25 08:38 | 48.29062 | 14.28616 | 37122 ft | 475 kts | 145° |
| 2026-04-25 08:39 | 48.18724 | 14.41041 | 37126 ft | 476 kts | 145° |
| 2026-04-25 08:39 | 48.05867 | 14.56445 | 37126 ft | 476 kts | 145° |
| 2026-04-25 08:40 | 48.00679 | 14.62619 | 37133 ft | 477 kts | 145° |
| 2026-04-25 08:40 | 47.95490 | 14.68779 | 37132 ft | 477 kts | 145° |
| 2026-04-25 08:41 | 47.90405 | 14.74809 | 37129 ft | 477 kts | 145° |
| 2026-04-25 08:41 | 47.87932 | 14.77770 | 37093 ft | 447 kts | 144° |
| 2026-04-25 08:41 | 47.86064 | 14.80082 | 37044 ft | 433 kts | 143° |